createdAt,value
2019-06-10T00:00:50.801Z,16.05
2019-06-10T00:03:31.527Z,16.75
2019-06-10T00:06:07.062Z,19.32
2019-06-10T00:08:42.054Z,17.48
2019-06-10T00:11:15.778Z,19.27
2019-06-10T00:13:50.721Z,20.17
2019-06-10T00:16:23.880Z,19.42
2019-06-10T00:18:57.963Z,22.90
2019-06-10T00:21:32.169Z,22.25
2019-06-10T00:24:06.821Z,22.00
2019-06-10T00:26:41.317Z,21.97
2019-06-10T00:29:14.682Z,22.48
2019-06-10T00:31:50.657Z,23.32
2019-06-10T00:34:23.188Z,24.30
2019-06-10T00:36:56.648Z,22.45
2019-06-10T00:39:31.270Z,22.22
2019-06-10T00:42:08.061Z,23.65
2019-06-10T00:44:41.651Z,21.48
2019-06-10T00:47:15.532Z,21.33
2019-06-10T00:49:51.279Z,19.65
2019-06-10T00:52:24.452Z,20.92
2019-06-10T00:55:01.101Z,21.12
2019-06-10T00:57:36.672Z,20.62
2019-06-10T01:00:19.210Z,21.10
2019-06-10T01:02:51.835Z,19.73
2019-06-10T01:05:42.093Z,17.85
2019-06-10T01:08:16.010Z,20.95
2019-06-10T01:10:57.421Z,20.25
2019-06-10T01:13:30.940Z,18.32
2019-06-10T01:17:01.138Z,17.35
2019-06-10T01:19:47.782Z,18.75
2019-06-10T01:22:22.030Z,18.73
2019-06-10T01:24:56.394Z,20.37
2019-06-10T01:27:31.515Z,21.07
2019-06-10T01:30:20.189Z,19.85
2019-06-10T01:32:46.840Z,22.17
2019-06-10T01:35:21.165Z,20.68
2019-06-10T01:37:54.512Z,20.70
2019-06-10T01:40:28.532Z,20.60
2019-06-10T01:43:02.045Z,18.98
2019-06-10T01:45:36.644Z,18.20
2019-06-10T01:48:12.110Z,19.37
2019-06-10T01:50:46.139Z,20.82
2019-06-10T01:53:23.308Z,21.25
2019-06-10T01:55:56.792Z,20.82
2019-06-10T01:58:33.376Z,20.95
2019-06-10T02:01:23.306Z,21.10
2019-06-10T02:03:55.253Z,21.40
2019-06-10T02:06:31.487Z,23.05
2019-06-10T02:09:07.018Z,23.27
2019-06-10T02:11:41.390Z,24.00
2019-06-10T02:14:17.753Z,25.30
2019-06-10T02:16:50.731Z,25.62
2019-06-10T02:19:24.370Z,25.45
2019-06-10T02:22:01.021Z,26.27
2019-06-10T02:24:33.613Z,25.32
2019-06-10T02:27:07.610Z,21.48
2019-06-10T02:29:41.477Z,23.70
2019-06-10T02:32:21.103Z,23.07
2019-06-10T02:35:03.579Z,23.18
2019-06-10T02:37:32.352Z,22.75
2019-06-10T02:40:04.435Z,21.45
2019-06-10T02:42:43.750Z,21.75
2019-06-10T02:45:22.193Z,20.00
2019-06-10T02:47:53.803Z,23.15
2019-06-10T02:50:36.433Z,22.05
2019-06-10T02:53:12.885Z,19.48
2019-06-10T02:55:44.939Z,17.60
2019-06-10T02:58:21.568Z,15.83
2019-06-10T03:01:19.948Z,14.75
2019-06-10T03:03:54.362Z,16.48
2019-06-10T03:06:35.145Z,13.05
2019-06-10T03:09:04.820Z,13.10
2019-06-10T03:11:38.312Z,14.25
2019-06-10T03:14:13.124Z,12.10
2019-06-10T03:16:48.087Z,13.03
2019-06-10T03:19:39.653Z,13.38
2019-06-10T03:21:57.289Z,11.88
2019-06-10T03:24:32.776Z,11.35
2019-06-10T03:27:07.245Z,12.55
2019-06-10T03:29:42.124Z,9.35
2019-06-10T03:32:17.671Z,10.53
2019-06-10T03:34:54.832Z,10.58
2019-06-10T03:37:27.677Z,7.90
2019-06-10T03:40:02.488Z,8.33
2019-06-10T03:42:36.231Z,8.65
2019-06-10T03:45:12.673Z,7.97
2019-06-10T03:47:45.828Z,3.75
2019-06-10T03:50:23.934Z,7.10
2019-06-10T03:52:55.667Z,6.67
2019-06-10T03:55:29.242Z,3.42
2019-06-10T03:58:12.946Z,8.58
2019-06-10T04:00:49.398Z,7.58
2019-06-10T04:03:24.811Z,8.85
2019-06-10T04:05:57.900Z,7.20
2019-06-10T04:08:32.883Z,7.75
2019-06-10T04:11:08.236Z,7.92
2019-06-10T04:13:43.069Z,8.93
2019-06-10T04:16:17.612Z,5.05
2019-06-10T04:18:53.267Z,7.53
2019-06-10T04:21:27.253Z,6.78
2019-06-10T04:24:02.287Z,8.13
2019-06-10T04:26:35.643Z,9.13
2019-06-10T04:29:09.029Z,6.85
2019-06-10T04:31:42.671Z,9.03
2019-06-10T04:34:16.028Z,9.58
2019-06-10T04:36:52.781Z,8.53
2019-06-10T04:39:27.619Z,8.53
2019-06-10T04:42:02.469Z,9.30
2019-06-10T04:44:36.094Z,9.00
2019-06-10T04:47:11.939Z,9.78
2019-06-10T04:49:52.252Z,9.45
2019-06-10T04:52:28.430Z,12.25
2019-06-10T04:55:02.820Z,8.55
2019-06-10T04:57:36.978Z,8.68
2019-06-10T05:00:14.577Z,5.22
2019-06-10T05:02:47.376Z,7.75
2019-06-10T05:05:23.624Z,6.83
2019-06-10T05:07:56.138Z,5.85
2019-06-10T05:10:29.964Z,7.83
2019-06-10T05:13:03.633Z,4.95
2019-06-10T05:15:37.236Z,5.12
2019-06-10T05:18:13.022Z,8.25
2019-06-10T05:20:54.934Z,7.37
2019-06-10T05:23:22.455Z,4.60
2019-06-10T05:25:57.274Z,7.85
2019-06-10T05:28:33.857Z,5.37
2019-06-10T05:31:07.128Z,5.72
2019-06-10T05:33:42.671Z,5.42
2019-06-10T05:36:18.712Z,5.62
2019-06-10T05:38:53.061Z,6.67
2019-06-10T05:41:28.973Z,2.35
2019-06-10T05:44:09.211Z,3.80
2019-06-10T05:46:47.589Z,3.35
2019-06-10T05:49:24.129Z,2.77
2019-06-10T05:51:59.221Z,8.95
2019-06-10T05:54:34.029Z,8.88
2019-06-10T05:57:08.055Z,8.58
2019-06-10T05:59:43.295Z,7.87
2019-06-10T06:02:18.282Z,6.60
2019-06-10T06:04:56.128Z,8.35
2019-06-10T06:07:31.316Z,8.18
2019-06-10T06:10:05.914Z,8.25
2019-06-10T06:12:42.245Z,9.55
2019-06-10T06:15:15.372Z,8.33
2019-06-10T06:18:04.028Z,8.60
2019-06-10T06:20:25.048Z,5.40
2019-06-10T06:22:59.086Z,7.35
2019-06-10T06:25:39.035Z,6.40
2019-06-10T06:28:07.792Z,5.90
2019-06-10T06:30:42.293Z,5.75
2019-06-10T06:33:16.276Z,6.60
2019-06-10T06:35:52.352Z,6.78
2019-06-10T06:38:26.857Z,6.62
2019-06-10T06:41:02.971Z,5.72
2019-06-10T06:43:39.992Z,6.22
2019-06-10T06:46:12.634Z,4.92
2019-06-10T06:48:46.270Z,4.87
2019-06-10T06:51:33.574Z,5.80
2019-06-10T06:53:56.262Z,5.58
2019-06-10T06:56:32.612Z,6.20
2019-06-10T06:59:05.154Z,6.60
2019-06-10T07:01:39.562Z,5.22
2019-06-10T07:04:13.799Z,6.33
2019-06-10T07:06:47.228Z,4.47
2019-06-10T07:09:22.122Z,5.62
2019-06-10T07:11:57.178Z,3.60
2019-06-10T07:14:36.809Z,1.67
2019-06-10T07:17:07.324Z,3.90
2019-06-10T07:19:42.097Z,4.53
2019-06-10T07:22:16.961Z,4.60
2019-06-10T07:24:52.858Z,3.02
2019-06-10T07:27:52.736Z,4.42
2019-06-10T07:30:22.859Z,4.37
2019-06-10T07:33:06.562Z,3.58
2019-06-10T07:35:43.754Z,4.15
2019-06-10T07:38:16.891Z,5.65
2019-06-10T07:40:52.867Z,5.10
2019-06-10T07:43:26.372Z,4.10
2019-06-10T07:46:00.347Z,3.98
2019-06-10T07:48:35.290Z,3.85
2019-06-10T07:51:12.896Z,4.87
2019-06-10T07:53:46.987Z,4.78
2019-06-10T07:56:23.393Z,4.28
2019-06-10T07:58:55.958Z,5.45
2019-06-10T08:01:29.967Z,5.00
2019-06-10T08:04:03.404Z,5.03
2019-06-10T08:06:37.891Z,5.08
2019-06-10T08:09:12.789Z,4.97
2019-06-10T08:11:48.602Z,5.47
2019-06-10T08:14:22.960Z,5.80
2019-06-10T08:16:58.169Z,5.22
2019-06-10T08:19:37.656Z,5.58
2019-06-10T08:22:13.024Z,6.05
2019-06-10T08:24:47.716Z,4.05
2019-06-10T08:27:22.762Z,4.87
2019-06-10T08:30:14.322Z,5.00
2019-06-10T08:32:33.517Z,5.40
2019-06-10T08:35:08.652Z,4.60
2019-06-10T08:37:43.181Z,5.72
2019-06-10T08:40:17.154Z,8.30
2019-06-10T08:42:53.550Z,5.30
2019-06-10T08:45:26.112Z,5.30
2019-06-10T08:48:02.768Z,5.28
2019-06-10T08:50:39.259Z,5.62
2019-06-10T08:53:18.301Z,5.80
2019-06-10T08:55:56.889Z,6.72
2019-06-10T08:58:30.233Z,5.60
2019-06-10T09:01:04.006Z,6.12
2019-06-10T09:03:38.991Z,5.42
2019-06-10T09:06:13.280Z,5.30
2019-06-10T09:08:49.916Z,5.35
2019-06-10T09:11:23.697Z,5.50
2019-06-10T09:13:57.978Z,5.35
2019-06-10T09:16:32.925Z,6.03
2019-06-10T09:19:07.582Z,7.12
2019-06-10T09:21:45.942Z,6.80
2019-06-10T09:24:16.194Z,4.80
2019-06-10T09:26:52.097Z,4.78
2019-06-10T09:29:26.269Z,5.65
2019-06-10T09:32:02.020Z,5.80
2019-06-10T09:34:35.473Z,5.75
2019-06-10T09:37:09.215Z,6.30
2019-06-10T09:39:50.464Z,6.67
2019-06-10T09:42:26.319Z,5.60
2019-06-10T09:45:02.637Z,6.47
2019-06-10T09:47:36.851Z,5.58
2019-06-10T09:50:12.899Z,4.83
2019-06-10T09:52:50.832Z,5.85
2019-06-10T09:55:23.803Z,5.75
2019-06-10T09:57:59.902Z,5.10
2019-06-10T10:00:47.321Z,6.45
2019-06-10T10:03:19.128Z,5.83
2019-06-10T10:06:07.308Z,5.80
2019-06-10T10:08:28.051Z,5.60
2019-06-10T10:11:02.260Z,6.40
2019-06-10T10:13:35.669Z,6.55
2019-06-10T10:16:09.349Z,6.47
2019-06-10T10:18:47.279Z,6.15
2019-06-10T10:21:18.453Z,6.33
2019-06-10T10:24:14.574Z,6.35
2019-06-10T10:26:48.701Z,6.65
2019-06-10T10:29:21.693Z,5.50
2019-06-10T10:31:55.778Z,6.83
2019-06-10T10:34:29.645Z,7.22
2019-06-10T10:37:03.401Z,7.37
2019-06-10T10:39:38.014Z,6.55
2019-06-10T10:42:12.592Z,7.58
2019-06-10T10:44:49.188Z,7.05
2019-06-10T10:47:25.180Z,7.70
2019-06-10T10:49:57.746Z,7.60
2019-06-10T10:52:33.050Z,17.67
2019-06-10T10:55:07.193Z,20.25
2019-06-10T10:57:41.183Z,23.62
2019-06-10T11:00:17.097Z,26.55
2019-06-10T11:02:51.438Z,33.08
2019-06-10T11:05:36.283Z,32.85
2019-06-10T11:08:13.553Z,30.15
2019-06-10T11:10:48.179Z,35.52
2019-06-10T11:13:23.515Z,33.45
2019-06-10T11:15:58.486Z,35.65
2019-06-10T11:18:34.007Z,35.48
2019-06-10T11:21:15.174Z,35.45
2019-06-10T11:23:50.038Z,50.15
2019-06-10T11:26:26.807Z,47.80
2019-06-10T11:28:58.922Z,48.52
2019-06-10T11:31:32.809Z,48.02
2019-06-10T11:34:07.289Z,58.00
2019-06-10T11:36:42.383Z,59.27
2019-06-10T11:39:16.358Z,56.95
2019-06-10T11:41:50.897Z,54.38
2019-06-10T11:44:25.111Z,53.23
2019-06-10T11:46:59.760Z,58.23
2019-06-10T11:49:34.082Z,58.80
2019-06-10T11:52:07.630Z,54.35
2019-06-10T11:54:53.694Z,59.80
2019-06-10T11:57:18.158Z,65.08
2019-06-10T11:59:53.264Z,65.17
2019-06-10T12:02:29.861Z,67.30
2019-06-10T12:05:06.927Z,67.25
2019-06-10T12:07:42.744Z,64.53
2019-06-10T12:10:17.603Z,67.75
2019-06-10T12:12:54.981Z,65.35
2019-06-10T12:15:26.320Z,68.30
2019-06-10T12:18:08.812Z,63.10
2019-06-10T12:20:42.749Z,67.67
2019-06-10T12:23:16.395Z,66.47
2019-06-10T12:25:52.964Z,68.87
2019-06-10T12:28:25.748Z,64.20
2019-06-10T12:31:03.258Z,58.92
2019-06-10T12:33:35.031Z,63.63
2019-06-10T12:36:08.849Z,60.30
2019-06-10T12:38:43.546Z,66.70
2019-06-10T12:41:17.855Z,69.87
2019-06-10T12:43:53.030Z,83.72
2019-06-10T12:46:26.679Z,90.55
2019-06-10T12:49:03.691Z,94.17
2019-06-10T12:51:35.200Z,107.37
2019-06-10T12:54:09.162Z,132.63
2019-06-10T12:56:43.346Z,134.57
2019-06-10T12:59:16.939Z,126.27
2019-06-10T13:01:53.133Z,114.37
2019-06-10T13:04:25.751Z,115.05
2019-06-10T13:07:00.362Z,106.27
2019-06-10T13:09:36.551Z,101.05
2019-06-10T13:12:12.913Z,98.05
2019-06-10T13:14:45.593Z,92.55
2019-06-10T13:17:19.082Z,89.65
2019-06-10T13:19:52.482Z,80.95
2019-06-10T13:22:26.347Z,82.05
2019-06-10T13:25:00.621Z,70.40
2019-06-10T13:27:34.221Z,69.92
2019-06-10T13:30:11.111Z,65.80
2019-06-10T13:32:44.863Z,65.17
2019-06-10T13:35:19.720Z,60.38
2019-06-10T13:37:53.601Z,62.75
2019-06-10T13:40:27.455Z,65.75
2019-06-10T13:43:01.807Z,73.97
2019-06-10T13:45:35.896Z,66.67
2019-06-10T13:48:11.541Z,70.05
2019-06-10T13:50:45.842Z,68.95
2019-06-10T13:53:21.187Z,66.90
2019-06-10T13:56:14.442Z,68.52
2019-06-10T13:58:29.803Z,70.60
2019-06-10T14:01:06.743Z,71.33
2019-06-10T14:03:39.406Z,71.20
2019-06-10T14:06:33.090Z,80.25
2019-06-10T14:08:48.410Z,79.03
2019-06-10T14:11:26.217Z,99.55
2019-06-10T14:13:56.822Z,99.92
2019-06-10T14:16:33.182Z,102.22
2019-06-10T14:19:09.286Z,96.97
2019-06-10T14:21:44.039Z,103.17
2019-06-10T14:24:17.903Z,99.47
2019-06-10T14:26:53.155Z,100.97
2019-06-10T14:29:26.850Z,98.97
2019-06-10T14:32:03.170Z,102.38
2019-06-10T14:34:35.979Z,99.32
2019-06-10T14:37:10.442Z,103.92
2019-06-10T14:39:45.042Z,100.87
2019-06-10T14:42:18.584Z,101.60
2019-06-10T14:44:52.677Z,99.42
2019-06-10T14:47:27.033Z,102.87
2019-06-10T14:50:03.134Z,97.80
2019-06-10T14:52:36.066Z,94.72
2019-06-10T14:55:09.676Z,71.45
2019-06-10T14:57:43.311Z,62.03
2019-06-10T15:00:18.209Z,55.95
2019-06-10T15:02:53.824Z,61.33
2019-06-10T15:05:26.815Z,58.13
2019-06-10T15:08:00.321Z,52.60
2019-06-10T15:10:38.108Z,52.35
2019-06-10T15:13:12.169Z,45.17
2019-06-10T15:15:45.545Z,40.25
2019-06-10T15:18:20.623Z,32.67
2019-06-10T15:20:54.135Z,31.40
2019-06-10T15:23:27.849Z,27.80
2019-06-10T15:26:02.862Z,23.12
2019-06-10T15:28:36.321Z,22.05
2019-06-10T15:31:10.945Z,21.48
2019-06-10T15:33:45.406Z,21.77
2019-06-10T15:36:19.577Z,20.52
2019-06-10T15:38:53.964Z,20.75
2019-06-10T15:41:29.232Z,23.50
2019-06-10T15:44:03.495Z,18.62
2019-06-10T15:46:42.855Z,19.60
2019-06-10T15:49:21.111Z,16.67
2019-06-10T15:51:54.655Z,17.27
2019-06-10T15:54:29.052Z,16.85
2019-06-10T15:57:03.143Z,16.27
2019-06-10T15:59:36.965Z,15.38
2019-06-10T16:02:14.260Z,16.25
2019-06-10T16:04:52.461Z,12.28
2019-06-10T16:07:25.761Z,13.43
2019-06-10T16:09:59.540Z,11.60
2019-06-10T16:12:33.568Z,11.57
2019-06-10T16:15:10.056Z,11.90
2019-06-10T16:17:44.039Z,11.05
2019-06-10T16:20:19.308Z,11.38
2019-06-10T16:22:52.722Z,10.00
2019-06-10T16:25:26.597Z,8.88
2019-06-10T16:28:22.866Z,9.63
2019-06-10T16:30:55.512Z,9.53
2019-06-10T16:33:28.975Z,9.95
2019-06-10T16:36:12.222Z,9.43
2019-06-10T16:38:46.920Z,9.85
2019-06-10T16:41:22.238Z,9.95
2019-06-10T16:43:55.130Z,8.55
2019-06-10T16:46:29.124Z,9.65
2019-06-10T16:49:03.218Z,8.65
2019-06-10T16:51:56.635Z,9.00
2019-06-10T16:54:32.800Z,8.60
2019-06-10T16:57:12.359Z,8.53
2019-06-10T16:59:46.052Z,8.13
2019-06-10T17:02:22.344Z,8.08
2019-06-10T17:04:57.654Z,7.72
2019-06-10T17:07:29.361Z,7.80
2019-06-10T17:10:03.712Z,8.10
2019-06-10T17:12:37.155Z,7.45
2019-06-10T17:15:14.746Z,7.17
2019-06-10T17:17:48.350Z,7.53
2019-06-10T17:20:23.619Z,7.28
2019-06-10T17:22:56.778Z,7.25
2019-06-10T17:25:30.218Z,7.72
2019-06-10T17:28:17.870Z,8.45
2019-06-10T17:30:38.662Z,8.23
2019-06-10T17:33:12.972Z,8.03
2019-06-10T17:35:45.742Z,8.20
2019-06-10T17:38:18.039Z,7.17
2019-06-10T17:40:52.158Z,7.08
2019-06-10T17:43:25.079Z,6.65
2019-06-10T17:45:57.921Z,7.22
2019-06-10T17:48:31.403Z,7.35
2019-06-10T17:51:04.006Z,7.12
2019-06-10T17:53:38.568Z,8.30
2019-06-10T17:56:14.021Z,7.78
2019-06-10T17:58:53.800Z,7.60
2019-06-10T18:01:22.532Z,7.80
2019-06-10T18:03:55.182Z,8.10
2019-06-10T18:06:29.607Z,7.40
2019-06-10T18:09:04.044Z,7.53
2019-06-10T18:11:36.776Z,7.35
2019-06-10T18:14:12.835Z,6.72
2019-06-10T18:16:46.741Z,7.22
2019-06-10T18:21:52.258Z,4.87
2019-06-10T18:24:27.250Z,5.78
2019-06-10T18:26:58.248Z,5.80
2019-06-10T18:29:34.102Z,5.28
2019-06-10T18:32:06.260Z,5.28
2019-06-10T18:34:38.765Z,5.22
2019-06-10T18:37:12.451Z,5.25
2019-06-10T18:42:16.108Z,7.17
2019-06-10T18:44:48.318Z,8.18
2019-06-10T18:47:22.371Z,8.05
2019-06-10T18:49:54.736Z,7.40
2019-06-10T18:52:27.349Z,8.08
2019-06-10T18:54:59.684Z,7.03
2019-06-10T19:00:11.227Z,6.47
2019-06-10T19:02:39.984Z,5.87
2019-06-10T19:05:13.098Z,6.00
2019-06-10T19:07:46.858Z,7.17
2019-06-10T19:10:19.426Z,6.20
2019-06-10T19:12:53.186Z,6.65
2019-06-10T19:15:25.488Z,6.62
2019-06-10T19:20:30.885Z,6.92
2019-06-10T19:23:03.632Z,6.53
2019-06-10T19:28:08.312Z,7.45
2019-06-10T19:30:42.389Z,7.40
2019-06-10T19:33:14.332Z,7.70
2019-06-10T19:35:47.908Z,7.72
2019-06-10T19:38:22.754Z,7.80
2019-06-10T19:40:54.623Z,7.55
2019-06-10T19:43:27.263Z,8.58
2019-06-10T19:45:59.934Z,7.50
2019-06-10T19:48:35.259Z,7.53
2019-06-10T19:51:07.804Z,7.75
2019-06-10T19:53:43.814Z,7.60
2019-06-10T19:56:14.193Z,7.72
2019-06-10T19:58:47.764Z,7.83
2019-06-10T20:01:22.396Z,7.75
2019-06-10T20:03:54.627Z,7.92
2019-06-10T20:06:27.424Z,7.35
2019-06-10T20:09:02.580Z,7.60
2019-06-10T20:11:36.134Z,7.67
2019-06-10T20:14:09.296Z,8.08
2019-06-10T20:16:42.993Z,9.13
2019-06-10T20:19:15.755Z,9.55
2019-06-10T20:21:49.008Z,8.68
2019-06-10T20:24:22.212Z,8.73
2019-06-10T20:26:54.629Z,8.90
2019-06-10T20:29:27.087Z,10.45
2019-06-10T20:31:59.273Z,10.53
2019-06-10T20:34:32.012Z,11.15
2019-06-10T20:39:37.872Z,13.35
2019-06-10T20:42:12.765Z,13.95
2019-06-10T20:44:45.902Z,13.53
2019-06-10T20:47:18.706Z,13.32
2019-06-10T20:49:55.594Z,12.78
2019-06-10T20:52:25.279Z,12.30
2019-06-10T20:57:29.383Z,11.53
2019-06-10T21:00:01.938Z,12.10
2019-06-10T21:02:36.008Z,12.90
2019-06-10T21:05:11.016Z,11.70
2019-06-10T21:07:45.685Z,11.95
2019-06-10T21:10:22.296Z,13.18
2019-06-10T21:12:54.326Z,12.45
2019-06-10T21:15:27.113Z,12.35
2019-06-10T21:17:59.606Z,12.88
2019-06-10T21:20:33.092Z,13.75
2019-06-10T21:23:05.875Z,13.62
2019-06-10T21:25:38.563Z,13.62
2019-06-10T21:28:13.076Z,14.15
2019-06-10T21:30:50.488Z,12.95
2019-06-10T21:33:18.625Z,13.40
2019-06-10T21:35:54.654Z,13.43
2019-06-10T21:38:24.806Z,13.45
2019-06-10T21:43:29.227Z,13.50
2019-06-10T21:46:03.764Z,14.30
2019-06-10T21:48:37.216Z,12.85
2019-06-10T21:51:09.870Z,13.03
2019-06-10T21:53:42.441Z,13.08
2019-06-10T21:56:15.722Z,12.10
2019-06-10T21:58:48.891Z,13.18
2019-06-10T22:01:22.388Z,10.90
2019-06-10T22:04:00.730Z,12.25
2019-06-10T22:06:29.683Z,10.80
2019-06-10T22:09:03.951Z,10.78
2019-06-10T22:11:37.770Z,10.20
2019-06-10T22:14:12.090Z,11.18
2019-06-10T22:16:44.576Z,11.05
2019-06-10T22:19:17.203Z,10.53
2019-06-10T22:24:22.798Z,10.50
2019-06-10T22:26:55.184Z,10.20
2019-06-10T22:29:27.401Z,11.08
2019-06-10T22:31:59.806Z,9.83
2019-06-10T22:34:32.919Z,11.00
2019-06-10T22:37:06.366Z,10.35
2019-06-10T22:39:38.871Z,10.20
2019-06-10T22:42:12.262Z,9.55
2019-06-10T22:44:44.547Z,10.75
2019-06-10T22:47:17.197Z,10.23
2019-06-10T22:49:49.976Z,11.65
2019-06-10T22:52:23.087Z,10.78
2019-06-10T22:54:58.379Z,10.58
2019-06-10T22:57:30.834Z,11.22
2019-06-10T23:00:03.291Z,11.75
2019-06-10T23:02:37.590Z,11.38
2019-06-10T23:05:13.048Z,12.13
2019-06-10T23:07:44.990Z,11.43
2019-06-10T23:10:17.336Z,10.53
2019-06-10T23:12:51.271Z,12.68
2019-06-10T23:15:24.129Z,11.65
2019-06-10T23:17:57.463Z,12.20
2019-06-10T23:20:34.050Z,12.53
2019-06-10T23:23:07.511Z,11.10
2019-06-10T23:25:39.825Z,11.93
2019-06-10T23:28:13.006Z,11.33
2019-06-10T23:30:45.417Z,12.53
2019-06-10T23:33:18.236Z,11.53
2019-06-10T23:35:50.858Z,15.95
2019-06-10T23:38:23.976Z,12.07
2019-06-10T23:40:57.235Z,11.95
2019-06-10T23:43:29.748Z,11.20
2019-06-10T23:46:04.416Z,12.35
2019-06-10T23:48:36.883Z,36.70
2019-06-10T23:51:09.081Z,13.60
2019-06-10T23:53:41.526Z,13.78
2019-06-10T23:56:13.758Z,14.23
2019-06-10T23:58:46.568Z,13.08
